createdAt,value
2023-01-26T00:01:09.369Z,102585.91
2023-01-26T00:03:36.275Z,102580.03
2023-01-26T00:06:03.777Z,102586.22
2023-01-26T00:08:30.544Z,102578.66
2023-01-26T00:10:57.534Z,102579.22
2023-01-26T00:13:25.058Z,102568.00
2023-01-26T00:15:52.414Z,102566.84
2023-01-26T00:18:19.468Z,102566.59
2023-01-26T00:20:46.318Z,102566.84
2023-01-26T00:23:13.602Z,102569.66
2023-01-26T00:25:40.689Z,102570.50
2023-01-26T00:28:08.454Z,102569.94
2023-01-26T00:30:35.572Z,102570.81
2023-01-26T00:33:02.305Z,102563.75
2023-01-26T00:35:29.334Z,102570.44
2023-01-26T00:37:56.455Z,102563.41
2023-01-26T00:40:23.569Z,102572.97
2023-01-26T00:42:50.289Z,102567.91
2023-01-26T00:45:17.359Z,102568.16
2023-01-26T00:47:45.117Z,102582.50
2023-01-26T00:50:15.085Z,102578.25
2023-01-26T00:52:41.889Z,102575.16
2023-01-26T00:55:08.945Z,102573.44
2023-01-26T00:57:36.060Z,102570.34
2023-01-26T01:00:03.006Z,102570.91
2023-01-26T01:02:29.832Z,102585.22
2023-01-26T01:04:58.762Z,102575.03
2023-01-26T01:07:27.884Z,102571.38
2023-01-26T01:09:54.978Z,102567.72
2023-01-26T01:12:21.899Z,102578.63
2023-01-26T01:14:49.158Z,102571.59
2023-01-26T01:17:16.074Z,102576.91
2023-01-26T01:19:42.767Z,102573.81
2023-01-26T01:22:09.455Z,102568.72
2023-01-26T01:24:38.048Z,102579.38
2023-01-26T01:27:04.932Z,102581.34
2023-01-26T01:29:32.136Z,102584.66
2023-01-26T01:31:59.107Z,102586.66
2023-01-26T01:34:25.887Z,102593.97
2023-01-26T01:36:52.928Z,102586.66
2023-01-26T01:39:21.832Z,102594.78
2023-01-26T01:41:48.909Z,102588.03
2023-01-26T01:44:19.026Z,102599.81
2023-01-26T01:46:48.981Z,102593.59
2023-01-26T01:49:18.859Z,102593.88
2023-01-26T01:51:51.417Z,102591.59
2023-01-26T01:54:22.213Z,102601.97
2023-01-26T01:56:51.745Z,102595.78
2023-01-26T01:59:22.285Z,102608.66
2023-01-26T02:01:50.675Z,102602.72
2023-01-26T02:04:17.804Z,102592.84
2023-01-26T02:06:48.467Z,102604.88
2023-01-26T02:09:37.167Z,102595.03
2023-01-26T02:12:06.049Z,102595.88
2023-01-26T02:14:33.865Z,102584.88
2023-01-26T02:17:00.900Z,102591.03
2023-01-26T02:19:31.184Z,102583.66
2023-01-26T02:22:01.258Z,102584.50
2023-01-26T02:24:35.215Z,102581.66
2023-01-26T02:27:03.254Z,102581.41
2023-01-26T02:29:32.779Z,102571.78
2023-01-26T02:31:59.633Z,102587.47
2023-01-26T02:34:29.046Z,102587.47
2023-01-26T02:36:56.928Z,102585.72
2023-01-26T02:39:26.802Z,102592.44
2023-01-26T02:41:58.014Z,102589.34
2023-01-26T02:44:25.993Z,102592.13
2023-01-26T02:46:53.578Z,102590.69
2023-01-26T02:49:23.564Z,102582.22
2023-01-26T02:51:51.403Z,102585.31
2023-01-26T02:54:22.634Z,102580.19
2023-01-26T02:56:49.568Z,102594.75
2023-01-26T02:59:18.701Z,102600.31
2023-01-26T03:01:45.772Z,102587.97
2023-01-26T03:04:12.494Z,102592.44
2023-01-26T03:06:39.245Z,102592.38
2023-01-26T03:09:05.949Z,102590.66
2023-01-26T03:11:42.405Z,102593.22
2023-01-26T03:14:11.144Z,102599.59
2023-01-26T03:16:38.289Z,102592.28
2023-01-26T03:19:09.083Z,102594.50
2023-01-26T03:21:39.250Z,102598.09
2023-01-26T03:24:09.465Z,102600.06
2023-01-26T03:26:39.923Z,102596.03
2023-01-26T03:29:06.851Z,102598.84
2023-01-26T03:31:34.061Z,102599.38
2023-01-26T03:34:00.898Z,102602.94
2023-01-26T03:36:28.148Z,102597.09
2023-01-26T03:38:54.864Z,102601.53
2023-01-26T03:41:24.738Z,102598.72
2023-01-26T03:43:54.816Z,102603.97
2023-01-26T03:46:24.813Z,102600.59
2023-01-26T03:48:54.740Z,102607.56
2023-01-26T03:51:25.091Z,102607.84
2023-01-26T03:53:55.013Z,102610.88
2023-01-26T03:56:24.560Z,102600.78
2023-01-26T03:58:54.166Z,102607.75
2023-01-26T04:01:26.518Z,102612.19
2023-01-26T04:03:58.066Z,102615.50
2023-01-26T04:06:30.683Z,102615.75
2023-01-26T04:08:57.438Z,102608.38
2023-01-26T04:11:24.737Z,102612.03
2023-01-26T04:13:54.820Z,102609.47
2023-01-26T04:16:24.610Z,102610.00
2023-01-26T04:18:54.876Z,102603.81
2023-01-26T04:21:25.818Z,102600.94
2023-01-26T04:23:56.708Z,102611.31
2023-01-26T04:26:25.647Z,102607.66
2023-01-26T04:28:52.779Z,102612.91
2023-01-26T04:31:19.574Z,102618.53
2023-01-26T04:33:47.006Z,102629.63
2023-01-26T04:36:15.243Z,102633.78
2023-01-26T04:38:42.141Z,102639.38
2023-01-26T04:41:09.969Z,102637.09
2023-01-26T04:43:36.988Z,102641.25
2023-01-26T04:46:06.902Z,102648.81
2023-01-26T04:48:33.798Z,102642.09
2023-01-26T04:51:02.857Z,102646.28
2023-01-26T04:53:29.713Z,102642.28
2023-01-26T04:55:56.522Z,102631.34
2023-01-26T04:58:24.600Z,102638.03
2023-01-26T05:00:53.241Z,102637.44
2023-01-26T05:03:20.353Z,102633.56
2023-01-26T05:05:51.188Z,102628.44
2023-01-26T05:08:19.114Z,102624.78
2023-01-26T05:10:46.793Z,102626.16
2023-01-26T05:13:14.688Z,102638.69
2023-01-26T05:15:42.816Z,102638.94
2023-01-26T05:18:10.132Z,102632.72
2023-01-26T05:20:36.943Z,102634.94
2023-01-26T05:23:03.898Z,102643.94
2023-01-26T05:25:30.689Z,102646.47
2023-01-26T05:27:57.665Z,102640.41
2023-01-26T05:30:24.454Z,102642.72
2023-01-26T05:32:51.443Z,102645.84
2023-01-26T05:35:18.870Z,102645.31
2023-01-26T05:37:46.092Z,102650.16
2023-01-26T05:40:13.850Z,102642.94
2023-01-26T05:42:42.381Z,102645.84
2023-01-26T05:45:09.861Z,102641.41
2023-01-26T05:47:36.738Z,102646.25
2023-01-26T05:50:03.750Z,102646.59
2023-01-26T05:52:30.524Z,102649.47
2023-01-26T05:54:57.512Z,102651.50
2023-01-26T05:57:24.288Z,102646.81
2023-01-26T05:59:51.884Z,102648.84
2023-01-26T06:02:18.896Z,102650.63
2023-01-26T06:04:45.892Z,102647.06
2023-01-26T06:07:15.866Z,102656.41
2023-01-26T06:09:42.548Z,102658.16
2023-01-26T06:12:16.529Z,102654.56
2023-01-26T06:14:47.302Z,102651.59
2023-01-26T06:17:15.440Z,102651.69
2023-01-26T06:19:42.864Z,102654.56
2023-01-26T06:22:11.733Z,102663.03
2023-01-26T06:24:38.716Z,102655.53
2023-01-26T06:27:07.759Z,102668.53
2023-01-26T06:29:34.612Z,102671.41
2023-01-26T06:32:04.228Z,102673.41
2023-01-26T06:34:31.243Z,102667.88
2023-01-26T06:36:58.325Z,102665.94
2023-01-26T06:39:25.272Z,102667.97
2023-01-26T06:41:52.087Z,102679.25
2023-01-26T06:44:19.077Z,102693.34
2023-01-26T06:46:46.538Z,102693.41
2023-01-26T06:49:14.208Z,102690.66
2023-01-26T06:51:41.649Z,102693.78
2023-01-26T06:54:11.187Z,102693.00
2023-01-26T06:56:38.059Z,102697.56
2023-01-26T06:59:05.972Z,102691.44
2023-01-26T07:01:35.159Z,102699.06
2023-01-26T07:04:02.399Z,102701.06
2023-01-26T07:06:30.323Z,102703.09
2023-01-26T07:08:57.153Z,102713.81
2023-01-26T07:11:25.783Z,102714.97
2023-01-26T07:13:52.623Z,102717.00
2023-01-26T07:16:20.044Z,102722.06
2023-01-26T07:18:48.090Z,102722.13
2023-01-26T07:21:19.179Z,102720.22
2023-01-26T07:23:46.603Z,102723.31
2023-01-26T07:26:14.322Z,102729.50
2023-01-26T07:28:41.230Z,102729.00
2023-01-26T07:31:08.768Z,102726.50
2023-01-26T07:33:35.909Z,102728.75
2023-01-26T07:36:02.969Z,102714.19
2023-01-26T07:38:30.389Z,102706.06
2023-01-26T07:40:57.666Z,102708.34
2023-01-26T07:43:24.947Z,102704.97
2023-01-26T07:45:53.768Z,102731.72
2023-01-26T07:48:22.113Z,102734.25
2023-01-26T07:50:49.867Z,102744.06
2023-01-26T07:53:21.432Z,102749.38
2023-01-26T07:55:49.627Z,102739.84
2023-01-26T07:58:19.554Z,102742.91
2023-01-26T08:00:47.602Z,102750.31
2023-01-26T08:03:14.673Z,102741.16
2023-01-26T08:05:43.735Z,102737.28
2023-01-26T08:08:12.301Z,102749.13
2023-01-26T08:10:40.172Z,102741.25
2023-01-26T08:13:07.307Z,102731.13
2023-01-26T08:15:34.689Z,102728.59
2023-01-26T08:18:04.784Z,102730.56
2023-01-26T08:20:33.707Z,102751.59
2023-01-26T08:23:03.010Z,102753.84
2023-01-26T08:25:30.093Z,102748.47
2023-01-26T08:27:58.159Z,102744.81
2023-01-26T08:30:25.220Z,102736.94
2023-01-26T08:32:52.181Z,102745.97
2023-01-26T08:35:19.198Z,102744.00
2023-01-26T08:37:46.403Z,102742.31
2023-01-26T08:40:14.566Z,102751.06
2023-01-26T08:42:41.657Z,102744.31
2023-01-26T08:45:12.025Z,102741.25
2023-01-26T08:47:39.382Z,102752.22
2023-01-26T08:50:06.399Z,102762.94
2023-01-26T08:52:33.943Z,102758.16
2023-01-26T08:55:01.384Z,102767.44
2023-01-26T08:57:28.668Z,102762.66
2023-01-26T08:59:56.178Z,102759.88
2023-01-26T09:02:23.776Z,102762.94
2023-01-26T09:04:50.973Z,102762.06
2023-01-26T09:07:18.323Z,102764.03
2023-01-26T09:09:45.868Z,102760.38
2023-01-26T09:12:13.496Z,102768.25
2023-01-26T09:14:42.094Z,102776.09
2023-01-26T09:17:11.679Z,102774.97
2023-01-26T09:19:39.362Z,102782.50
2023-01-26T09:22:06.601Z,102780.28
2023-01-26T09:24:33.534Z,102783.91
2023-01-26T09:27:00.791Z,102776.88
2023-01-26T09:29:29.079Z,102771.22
2023-01-26T09:31:56.470Z,102778.28
2023-01-26T09:34:26.243Z,102775.78
2023-01-26T09:36:53.295Z,102787.00
2023-01-26T09:39:22.351Z,102782.84
2023-01-26T09:41:56.577Z,102785.34
2023-01-26T09:44:25.412Z,102786.81
2023-01-26T09:46:55.930Z,102784.84
2023-01-26T09:49:26.449Z,102788.75
2023-01-26T09:52:00.552Z,102791.84
2023-01-26T09:54:28.412Z,102789.63
2023-01-26T09:56:56.073Z,102791.56
2023-01-26T09:59:26.416Z,102791.84
2023-01-26T10:01:59.631Z,102799.97
2023-01-26T10:04:33.979Z,102804.47
2023-01-26T10:07:03.044Z,102804.97
2023-01-26T10:09:33.472Z,102806.94
2023-01-26T10:12:06.168Z,102796.25
2023-01-26T10:14:36.336Z,102802.41
2023-01-26T10:17:08.627Z,102802.91
2023-01-26T10:19:42.268Z,102797.59
2023-01-26T10:22:15.164Z,102798.09
2023-01-26T10:24:44.317Z,102793.59
2023-01-26T10:27:14.802Z,102794.97
2023-01-26T10:29:41.875Z,102803.41
2023-01-26T10:32:14.872Z,102805.03
2023-01-26T10:34:42.875Z,102814.25
2023-01-26T10:37:13.378Z,102811.75
2023-01-26T10:39:57.263Z,102803.56
2023-01-26T10:42:27.054Z,102811.94
2023-01-26T10:44:54.581Z,102811.09
2023-01-26T10:47:23.663Z,102807.72
2023-01-26T10:49:50.879Z,102806.25
2023-01-26T10:52:19.569Z,102802.88
2023-01-26T10:54:47.345Z,102802.03
2023-01-26T10:57:16.744Z,102801.19
2023-01-26T10:59:48.440Z,102793.25
2023-01-26T11:02:16.649Z,102804.19
2023-01-26T11:04:46.887Z,102790.66
2023-01-26T11:07:25.708Z,102793.72
2023-01-26T11:09:53.598Z,102798.25
2023-01-26T11:12:22.103Z,102800.44
2023-01-26T11:14:53.857Z,102808.06
2023-01-26T11:17:23.962Z,102797.31
2023-01-26T11:19:56.250Z,102799.22
2023-01-26T11:22:26.928Z,102799.47
2023-01-26T11:25:01.251Z,102807.56
2023-01-26T11:27:31.553Z,102811.72
2023-01-26T11:30:07.731Z,102798.22
2023-01-26T11:32:46.931Z,102792.63
2023-01-26T11:35:23.919Z,102787.78
2023-01-26T11:38:00.664Z,102794.50
2023-01-26T11:40:35.462Z,102784.06
2023-01-26T11:43:13.843Z,102790.19
2023-01-26T11:45:49.995Z,102782.56
2023-01-26T11:48:26.859Z,102787.56
2023-01-26T11:50:55.350Z,102779.69
2023-01-26T11:53:38.829Z,102777.38
2023-01-26T11:56:07.058Z,102777.06
2023-01-26T11:58:38.898Z,102782.66
2023-01-26T12:01:15.771Z,102779.53
2023-01-26T12:03:46.993Z,102772.22
2023-01-26T12:06:18.034Z,102776.97
2023-01-26T12:08:50.558Z,102771.38
2023-01-26T12:11:24.423Z,102772.84
2023-01-26T12:13:54.598Z,102771.97
2023-01-26T12:16:26.770Z,102769.50
2023-01-26T12:19:10.806Z,102764.47
2023-01-26T12:21:39.548Z,102763.97
2023-01-26T12:24:26.552Z,102763.19
2023-01-26T12:26:56.893Z,102762.41
2023-01-26T12:29:29.123Z,102763.81
2023-01-26T12:32:01.317Z,102744.53
2023-01-26T12:34:30.249Z,102759.72
2023-01-26T12:36:58.983Z,102760.03
2023-01-26T12:39:34.665Z,102765.97
2023-01-26T12:42:10.881Z,102765.47
2023-01-26T12:44:38.002Z,102768.59
2023-01-26T12:47:14.957Z,102768.94
2023-01-26T12:49:48.931Z,102763.38
2023-01-26T12:52:21.343Z,102766.75
2023-01-26T12:54:53.561Z,102772.72
2023-01-26T12:57:22.559Z,102774.75
2023-01-26T12:59:50.333Z,102767.72
2023-01-26T13:02:18.249Z,102756.81
2023-01-26T13:04:48.894Z,102761.06
2023-01-26T13:07:34.503Z,102754.06
2023-01-26T13:10:09.171Z,102757.19
2023-01-26T13:12:45.866Z,102757.53
2023-01-26T13:15:14.880Z,102755.88
2023-01-26T13:17:43.208Z,102754.47
2023-01-26T13:20:19.638Z,102757.03
2023-01-26T13:22:48.098Z,102756.50
2023-01-26T13:25:15.162Z,102760.75
2023-01-26T13:27:54.803Z,102760.75
2023-01-26T13:30:23.931Z,102756.81
2023-01-26T13:32:51.017Z,102758.50
2023-01-26T13:35:20.612Z,102763.88
2023-01-26T13:37:56.781Z,102763.56
2023-01-26T13:40:27.303Z,102759.94
2023-01-26T13:43:01.028Z,102750.38
2023-01-26T13:45:31.403Z,102754.91
2023-01-26T13:47:58.940Z,102748.72
2023-01-26T13:50:29.134Z,102751.53
2023-01-26T13:52:56.362Z,102758.25
2023-01-26T13:55:25.841Z,102757.59
2023-01-26T13:58:02.857Z,102750.03
2023-01-26T14:00:29.883Z,102749.75
2023-01-26T14:02:57.011Z,102754.53
2023-01-26T14:05:24.301Z,102755.34
2023-01-26T14:07:51.301Z,102743.53
2023-01-26T14:10:20.482Z,102756.72
2023-01-26T14:12:49.542Z,102748.56
2023-01-26T14:15:33.367Z,102753.56
2023-01-26T14:18:02.473Z,102751.06
2023-01-26T14:20:30.905Z,102754.38
2023-01-26T14:23:03.004Z,102752.97
2023-01-26T14:25:30.042Z,102761.63
2023-01-26T14:27:56.893Z,102772.00
2023-01-26T14:30:27.086Z,102761.56
2023-01-26T14:32:57.109Z,102762.13
2023-01-26T14:35:24.594Z,102754.47
2023-01-26T14:38:04.740Z,102754.75
2023-01-26T14:40:31.642Z,102758.09
2023-01-26T14:42:58.776Z,102745.44
2023-01-26T14:45:30.057Z,102759.13
2023-01-26T14:47:59.816Z,102758.31
2023-01-26T14:50:28.559Z,102763.06
2023-01-26T14:52:56.024Z,102757.72
2023-01-26T14:55:26.367Z,102764.72
2023-01-26T14:57:54.440Z,102768.34
2023-01-26T15:00:30.979Z,102760.50
2023-01-26T15:02:59.426Z,102771.41
2023-01-26T15:05:35.457Z,102762.97
2023-01-26T15:08:04.950Z,102773.59
2023-01-26T15:10:42.198Z,102775.31
2023-01-26T15:13:19.357Z,102771.91
2023-01-26T15:15:49.363Z,102774.72
2023-01-26T15:18:19.274Z,102776.09
2023-01-26T15:21:00.858Z,102775.50
2023-01-26T15:23:28.248Z,102765.41
2023-01-26T15:25:55.586Z,102763.63
2023-01-26T15:28:26.315Z,102769.78
2023-01-26T15:30:55.335Z,102768.59
2023-01-26T15:33:32.798Z,102766.38
2023-01-26T15:35:59.786Z,102768.00
2023-01-26T15:38:27.036Z,102778.63
2023-01-26T15:40:54.099Z,102777.28
2023-01-26T15:43:21.439Z,102780.63
2023-01-26T15:45:51.551Z,102784.78
2023-01-26T15:48:18.818Z,102782.22
2023-01-26T15:50:46.816Z,102789.81
2023-01-26T15:53:14.731Z,102787.50
2023-01-26T15:55:42.216Z,102776.81
2023-01-26T15:58:09.701Z,102787.72
2023-01-26T16:00:37.605Z,102792.47
2023-01-26T16:03:07.837Z,102792.38
2023-01-26T16:05:34.722Z,102788.47
2023-01-26T16:08:01.564Z,102785.06
2023-01-26T16:10:29.056Z,102778.63
2023-01-26T16:12:56.012Z,102780.84
2023-01-26T16:15:26.295Z,102788.41
2023-01-26T16:17:53.255Z,102780.00
2023-01-26T16:20:20.277Z,102784.50
2023-01-26T16:22:47.283Z,102773.59
2023-01-26T16:25:20.356Z,102790.44
2023-01-26T16:27:47.440Z,102782.59
2023-01-26T16:30:14.636Z,102781.50
2023-01-26T16:32:42.900Z,102785.75
2023-01-26T16:35:11.317Z,102788.03
2023-01-26T16:37:38.300Z,102803.22
2023-01-26T16:40:05.902Z,102789.53
2023-01-26T16:42:34.247Z,102795.47
2023-01-26T16:45:01.254Z,102795.53
2023-01-26T16:47:29.744Z,102783.81
2023-01-26T16:49:56.656Z,102793.41
2023-01-26T16:52:23.696Z,102799.06
2023-01-26T16:54:50.714Z,102814.28
2023-01-26T16:57:17.697Z,102807.88
2023-01-26T16:59:44.946Z,102797.88
2023-01-26T17:02:20.957Z,102801.00
2023-01-26T17:04:48.217Z,102814.25
2023-01-26T17:07:15.118Z,102811.75
2023-01-26T17:09:42.041Z,102813.75
2023-01-26T17:12:10.437Z,102804.84
2023-01-26T17:14:37.588Z,102810.75
2023-01-26T17:17:05.199Z,102815.84
2023-01-26T17:19:33.116Z,102817.00
2023-01-26T17:22:00.223Z,102817.63
2023-01-26T17:24:27.650Z,102822.13
2023-01-26T17:26:55.151Z,102813.41
2023-01-26T17:29:22.369Z,102816.81
2023-01-26T17:31:50.279Z,102815.72
2023-01-26T17:34:17.638Z,102816.56
2023-01-26T17:36:45.998Z,102821.03
2023-01-26T17:39:14.467Z,102821.91
2023-01-26T17:41:41.505Z,102814.31
2023-01-26T17:44:08.437Z,102820.78
2023-01-26T17:46:35.612Z,102825.81
2023-01-26T17:49:02.811Z,102828.38
2023-01-26T17:51:30.541Z,102823.59
2023-01-26T17:53:57.627Z,102820.19
2023-01-26T17:56:25.331Z,102834.00
2023-01-26T17:58:53.836Z,102835.09
2023-01-26T18:01:22.111Z,102843.53
2023-01-26T18:03:49.778Z,102838.75
2023-01-26T18:06:16.944Z,102838.75
2023-01-26T18:08:44.164Z,102835.09
2023-01-26T18:11:12.766Z,102842.66
2023-01-26T18:13:40.465Z,102852.22
2023-01-26T18:16:08.886Z,102854.19
2023-01-26T18:18:37.638Z,102851.63
2023-01-26T18:21:14.272Z,102853.59
2023-01-26T18:23:44.417Z,102858.34
2023-01-26T18:26:11.775Z,102857.50
2023-01-26T18:28:41.128Z,102842.63
2023-01-26T18:31:09.817Z,102847.91
2023-01-26T18:33:37.401Z,102853.81
2023-01-26T18:36:05.590Z,102855.16
2023-01-26T18:38:32.828Z,102860.78
2023-01-26T18:41:00.143Z,102860.47
2023-01-26T18:43:32.866Z,102868.28
2023-01-26T18:46:02.565Z,102875.28
2023-01-26T18:48:30.408Z,102869.34
2023-01-26T18:50:58.878Z,102869.59
2023-01-26T18:53:26.189Z,102865.88
2023-01-26T18:56:01.624Z,102865.88
2023-01-26T18:58:30.110Z,102877.03
2023-01-26T19:01:01.672Z,102871.09
2023-01-26T19:03:28.827Z,102884.78
2023-01-26T19:05:56.142Z,102885.31
2023-01-26T19:08:23.281Z,102890.31
2023-01-26T19:10:50.447Z,102886.94
2023-01-26T19:13:17.761Z,102887.44
2023-01-26T19:15:45.643Z,102897.81
2023-01-26T19:18:12.905Z,102885.69
2023-01-26T19:20:40.311Z,102882.03
2023-01-26T19:23:07.542Z,102876.41
2023-01-26T19:25:36.784Z,102871.59
2023-01-26T19:28:05.525Z,102875.72
2023-01-26T19:30:33.700Z,102875.16
2023-01-26T19:33:10.753Z,102871.19
2023-01-26T19:35:39.028Z,102868.88
2023-01-26T19:38:06.711Z,102855.94
2023-01-26T19:40:34.280Z,102857.91
2023-01-26T19:43:01.362Z,102857.56
2023-01-26T19:45:28.765Z,102851.38
2023-01-26T19:47:56.057Z,102858.34
2023-01-26T19:50:23.441Z,102865.31
2023-01-26T19:52:50.651Z,102863.03
2023-01-26T19:55:17.797Z,102864.16
2023-01-26T19:57:44.771Z,102862.09
2023-01-26T20:00:12.506Z,102874.41
2023-01-26T20:02:39.793Z,102866.25
2023-01-26T20:05:07.618Z,102864.50
2023-01-26T20:07:35.037Z,102877.56
2023-01-26T20:10:02.243Z,102871.97
2023-01-26T20:12:29.565Z,102858.19
2023-01-26T20:14:57.220Z,102855.31
2023-01-26T20:17:25.227Z,102860.91
2023-01-26T20:19:52.291Z,102856.91
2023-01-26T20:22:20.103Z,102855.97
2023-01-26T20:24:47.217Z,102843.31
2023-01-26T20:27:14.278Z,102847.81
2023-01-26T20:29:41.317Z,102851.97
2023-01-26T20:32:08.514Z,102848.06
2023-01-26T20:34:35.602Z,102851.38
2023-01-26T20:37:04.666Z,102854.66
2023-01-26T20:39:31.842Z,102851.81
2023-01-26T20:41:59.077Z,102845.34
2023-01-26T20:44:26.414Z,102853.16
2023-01-26T20:46:53.759Z,102850.59
2023-01-26T20:49:22.076Z,102861.47
2023-01-26T20:51:49.537Z,102855.75
2023-01-26T20:54:17.981Z,102859.06
2023-01-26T20:56:46.425Z,102842.28
2023-01-26T20:59:13.689Z,102849.25
2023-01-26T21:01:41.762Z,102845.16
2023-01-26T21:04:08.931Z,102847.94
2023-01-26T21:06:36.600Z,102852.09
2023-01-26T21:09:04.108Z,102854.38
2023-01-26T21:11:31.778Z,102856.84
2023-01-26T21:14:02.277Z,102859.31
2023-01-26T21:16:30.150Z,102864.81
2023-01-26T21:18:57.318Z,102872.97
2023-01-26T21:21:24.377Z,102876.25
2023-01-26T21:23:51.945Z,102877.00
2023-01-26T21:26:22.278Z,102873.09
2023-01-26T21:28:50.985Z,102875.56
2023-01-26T21:31:18.270Z,102872.91
2023-01-26T21:33:46.098Z,102875.63
2023-01-26T21:36:15.662Z,102880.59
2023-01-26T21:38:44.468Z,102889.34
2023-01-26T21:41:22.571Z,102888.50
2023-01-26T21:43:49.507Z,102886.81
2023-01-26T21:46:16.397Z,102890.19
2023-01-26T21:48:43.507Z,102893.00
2023-01-26T21:51:19.651Z,102895.56
2023-01-26T21:53:48.061Z,102887.50
2023-01-26T21:56:15.241Z,102888.38
2023-01-26T21:58:51.656Z,102892.59
2023-01-26T22:01:18.942Z,102890.41
2023-01-26T22:03:46.609Z,102892.47
2023-01-26T22:06:13.567Z,102891.72
2023-01-26T22:08:40.721Z,102879.75
2023-01-26T22:11:07.749Z,102881.81
2023-01-26T22:13:36.402Z,102892.03
2023-01-26T22:16:04.638Z,102883.97
2023-01-26T22:18:31.827Z,102887.94
2023-01-26T22:20:58.891Z,102886.34
2023-01-26T22:23:26.187Z,102878.63
2023-01-26T22:25:53.219Z,102883.72
2023-01-26T22:28:20.191Z,102881.03
2023-01-26T22:30:47.259Z,102885.34
2023-01-26T22:33:14.332Z,102882.91
2023-01-26T22:35:41.386Z,102884.09
2023-01-26T22:38:08.383Z,102884.47
2023-01-26T22:40:37.572Z,102876.13
2023-01-26T22:43:04.646Z,102874.53
2023-01-26T22:45:31.702Z,102865.34
2023-01-26T22:47:58.750Z,102871.88
2023-01-26T22:50:25.869Z,102873.06
2023-01-26T22:52:52.827Z,102872.56
2023-01-26T22:55:19.694Z,102870.09
2023-01-26T22:57:46.832Z,102874.91
2023-01-26T23:00:14.514Z,102869.63
2023-01-26T23:02:41.684Z,102866.91
2023-01-26T23:05:09.081Z,102871.50
2023-01-26T23:07:36.116Z,102865.13
2023-01-26T23:10:03.201Z,102859.81
2023-01-26T23:12:30.849Z,102850.63
2023-01-26T23:14:58.132Z,102848.16
2023-01-26T23:17:25.208Z,102847.38
2023-01-26T23:19:54.064Z,102845.72
2023-01-26T23:22:25.005Z,102837.41
2023-01-26T23:25:01.787Z,102836.63
2023-01-26T23:27:28.741Z,102834.75
2023-01-26T23:29:55.872Z,102833.34
2023-01-26T23:32:23.128Z,102833.41
2023-01-26T23:34:50.246Z,102830.97
2023-01-26T23:37:17.193Z,102820.91
2023-01-26T23:39:44.492Z,102822.91
2023-01-26T23:42:11.482Z,102807.47
2023-01-26T23:44:38.662Z,102813.16
2023-01-26T23:47:05.920Z,102813.47
2023-01-26T23:49:33.131Z,102796.94
2023-01-26T23:52:00.007Z,102800.91
2023-01-26T23:54:27.019Z,102807.97
2023-01-26T23:56:54.042Z,102808.28
2023-01-26T23:59:21.339Z,102808.03
